Bomai Airport


Codes: BMH/BMH
Name: Bomai Airport
City: Bomai
Country: Papua New Guinea
Elevation: 3300 ft.

Photos at Bomai Airport


   Photos courtesy of SpottingLog. You can add your own sightings and photos by signing up for a free trial today.



No photos found.

Weather at Bomai Airport


Time (UTC)DescriptionTempratureWindCloud coverageVisibilityPressureHumidity
13-Jun-2024 03:00Light Rain23°C2 mph, S100%10000m1012hPa85%
13-Jun-2024 06:00Moderate Rain22°C2 mph, S100%6208m1012hPa93%
13-Jun-2024 09:00Moderate Rain19°C0 mph, S100%10000m1013hPa99%
13-Jun-2024 12:00Light Rain19°C0 mph, SE99%10000m1015hPa99%
13-Jun-2024 15:00Overcast Clouds19°C0 mph, N99%10000m1014hPa99%
13-Jun-2024 18:00Light Rain19°C0 mph, N100%10000m1013hPa99%
13-Jun-2024 21:00Overcast Clouds19°C0 mph, NE91%10000m1014hPa98%
14-Jun-2024 00:00Light Rain22°C2 mph, SW88%10000m1014hPa88%
14-Jun-2024 03:00Light Rain24°C4 mph, S70%10000m1010hPa79%
14-Jun-2024 06:00Moderate Rain22°C2 mph, S82%5726m1010hPa95%
14-Jun-2024 09:00Light Rain20°C2 mph, SE99%10000m1013hPa98%
14-Jun-2024 12:00Light Rain19°C0 mph, E99%8509m1014hPa98%
14-Jun-2024 15:00Light Rain19°C0 mph, SW100%10000m1013hPa98%
14-Jun-2024 18:00Light Rain19°C2 mph, SW100%6463m1013hPa99%
14-Jun-2024 21:00Light Rain19°C0 mph, S100%10000m1014hPa99%
15-Jun-2024 00:00Light Rain20°C0 mph, SW100%10000m1014hPa97%
15-Jun-2024 03:00Light Rain23°C4 mph, S98%10000m1011hPa78%
15-Jun-2024 06:00Light Rain22°C2 mph, S93%10000m1010hPa85%
15-Jun-2024 09:00Light Rain19°C2 mph, SE98%10000m1013hPa99%
15-Jun-2024 12:00Overcast Clouds19°C0 mph, S98%10000m1014hPa99%
15-Jun-2024 15:00Light Rain19°C2 mph, S100%6560m1013hPa99%
15-Jun-2024 18:00Light Rain19°C2 mph, S100%7510m1012hPa99%
15-Jun-2024 21:00Light Rain19°C0 mph, S100%4084m1014hPa99%
16-Jun-2024 00:00Light Rain20°C2 mph, S100%10000m1015hPa98%
16-Jun-2024 03:00Light Rain23°C2 mph, SW100%10000m1013hPa79%
16-Jun-2024 06:00Light Rain22°C2 mph, S94%4961m1012hPa90%
16-Jun-2024 09:00Light Rain19°C2 mph, SE95%10000m1014hPa98%
16-Jun-2024 12:00Light Rain19°C2 mph, S97%10000m1015hPa99%
16-Jun-2024 15:00Overcast Clouds19°C0 mph, E99%10000m1014hPa99%
16-Jun-2024 18:00Overcast Clouds18°C0 mph, S100%10000m1014hPa99%
16-Jun-2024 21:00Overcast Clouds18°C0 mph, SW96%10000m1015hPa99%
17-Jun-2024 00:00Light Rain20°C2 mph, SW97%10000m1015hPa96%
17-Jun-2024 03:00Light Rain25°C2 mph, SW84%10000m1012hPa68%
17-Jun-2024 06:00Light Rain24°C4 mph, S74%10000m1011hPa80%
17-Jun-2024 09:00Light Rain19°C2 mph, SE47%10000m1013hPa98%
17-Jun-2024 12:00Light Rain19°C2 mph, SE73%10000m1015hPa99%
17-Jun-2024 15:00Light Rain19°C0 mph, S100%10000m1014hPa99%
17-Jun-2024 18:00Overcast Clouds19°C0 mph, S100%8973m1013hPa99%
17-Jun-2024 21:00Light Rain19°C2 mph, S100%9624m1014hPa99%
18-Jun-2024 00:00Light Rain20°C2 mph, S100%10000m1015hPa97%